Weather History for Perry, IA

Change the Weather History Date:

Wednesday, December 11, 2013

  Actual Average Record
Temperature  
Mean Temperature 9 °F -  
Max Temperature 22 °F 32 °F 64 °F (1965)
Min Temperature -4 °F 12 °F -10 °F (1976)
Degree Days  
Heating Degree Days 56    
Moisture  
Dew Point -1 °F    
Average Humidity 73    
Maximum Humidity 93    
Minimum Humidity 61    
Precipitation  
Precipitation 0.00 in - - ()
Sea Level Pressure  
Sea Level Pressure 30.50 in    
Wind  
Wind Speed 9 mph (WNW)    
Max Wind Speed 23 mph    
Max Gust Speed 29 mph    
Visibility 9 miles    
Events Snow    
Averages and records for this station are not official NWS values.
T = Trace of Precipitation, MM = Missing Value Source: NWS Daily Summary

Daily Weather History Graph

Daily Weather History Graph

Search for Another Location

Airport:

Trip Planner

Search our weather history database for the weather conditions in past years. The results will help you decide how hot, cold, wet, or windy it might be!

Date:

Astronomy

Dec. 11, 2013 Rise Set
Actual Time 7:34 AM CST 4:45 PM CST
Civil Twilight 7:02 AM CST 5:17 PM CST
Nautical Twilight 6:27 AM CST 5:52 PM CST
Astronomical Twilight 5:53 AM CST 6:26 PM CST
Moon 1:23 PM CST (12/11) 1:52 AM CST (12/11)
Length of Visible Light 10h 14m
Length of Day
9h 11m
Waxing Gibbous, 72% of the Moon is Illuminated
Dec 11
Waxing Gibbous
Dec 17
Full
Dec 25
Last Quarter
Jan 1
New
Jan 7
First Quarter

Hourly Weather History & Observations

Time (CST) Temp. Windchill Dew Point Humidity Pressure Visibility Wind Dir Wind Speed Gust Speed Precip Events Conditions
12:15 AM 21.2 °F - 18.7 °F 90% 30.19 in 1.8 mi Calm Calm - N/A Snow Light Snow
12:24 AM 21.2 °F 16.4 °F 19.4 °F 93% 30.19 in 1.5 mi SSW 3.5 mph - N/A Snow Light Snow
12:35 AM 21.9 °F 17.2 °F 19.4 °F 90% 30.19 in 1.5 mi SW 3.5 mph - N/A Snow Light Snow
12:55 AM 22.5 °F 17.8 °F 20.1 °F 91% 30.20 in 2.0 mi West 3.5 mph - N/A Snow Light Snow
1:15 AM 22.5 °F 11.7 °F 20.3 °F 91% 30.22 in 2.0 mi North 10.4 mph - N/A Snow Light Snow
1:35 AM 20.8 °F 8.4 °F 18.0 °F 89% 30.24 in 5.0 mi North 12.7 mph - N/A Snow Light Snow
1:55 AM 19.4 °F 5.5 °F 15.8 °F 86% 30.26 in 10.0 mi North 15.0 mph 18.4 mph N/A   Scattered Clouds
2:15 AM 18.5 °F 5.5 °F 14.9 °F 86% 30.29 in 10.0 mi North 12.7 mph - N/A   Scattered Clouds
2:35 AM 18.1 °F 4.4 °F 14.7 °F 86% 30.30 in 10.0 mi North 13.8 mph - N/A   Scattered Clouds
2:55 AM 18.5 °F 4.3 °F 14.9 °F 86% 30.32 in 10.0 mi NNW 15.0 mph - N/A   Scattered Clouds
3:15 AM 18.1 °F 2.4 °F 13.5 °F 82% 30.33 in 10.0 mi NNW 18.4 mph 24.2 mph N/A   Mostly Cloudy
3:35 AM 16.7 °F 1.5 °F 12.2 °F 82% 30.34 in 10.0 mi NNW 16.1 mph - N/A   Scattered Clouds
3:55 AM 16.2 °F 0.3 °F 10.9 °F 80% 30.36 in 10.0 mi NNW 17.3 mph - N/A   Mostly Cloudy
4:15 AM 13.8 °F -3.2 °F 7.7 °F 77% 30.38 in 10.0 mi North 18.4 mph 25.3 mph N/A   Overcast
4:35 AM 12.2 °F -6.7 °F 5.7 °F 75% 30.41 in 10.0 mi North 21.9 mph 26.5 mph N/A   Overcast
4:55 AM 10.9 °F -6.5 °F 4.6 °F 76% 30.43 in 10.0 mi North 17.3 mph - N/A   Overcast
5:15 AM 9.1 °F -11.2 °F 1.2 °F 70% 30.44 in 10.0 mi North 23.0 mph 28.8 mph N/A   Overcast
5:35 AM 6.8 °F -12.4 °F -1.3 °F 69% 30.46 in 10.0 mi North 18.4 mph 24.2 mph N/A   Mostly Cloudy
5:55 AM 5.5 °F -12.9 °F -1.5 °F 73% 30.48 in 10.0 mi NNW 16.1 mph - N/A   Mostly Cloudy
6:15 AM 3.7 °F -14.6 °F -4.0 °F 70% 30.50 in 10.0 mi NNW 15.0 mph - N/A   Scattered Clouds
6:35 AM 3.0 °F -14.8 °F -4.9 °F 70% 30.51 in 10.0 mi NNW 13.8 mph 20.7 mph N/A   Clear
6:55 AM 2.3 °F -15.7 °F -6.2 °F 68% 30.52 in 10.0 mi NNW 13.8 mph - N/A   Clear
7:15 AM 1.4 °F -16.1 °F -6.7 °F 69% 30.53 in 10.0 mi NNW 12.7 mph - N/A   Clear
7:35 AM 0.5 °F -16.5 °F -7.2 °F 70% 30.54 in 10.0 mi NNW 11.5 mph - N/A   Clear
7:55 AM 0.1 °F -16.9 °F -7.6 °F 70% 30.56 in 10.0 mi NNW 11.5 mph - N/A   Clear
8:15 AM -0.8 °F -16.2 °F -8.1 °F 71% 30.56 in 10.0 mi NW 9.2 mph - N/A   Clear
8:35 AM -0.4 °F -15.7 °F -8.0 °F 70% 30.57 in 10.0 mi NNW 9.2 mph - N/A   Clear
8:55 AM -0.2 °F -15.5 °F -8.0 °F 70% 30.58 in 10.0 mi NNW 9.2 mph - N/A   Clear
9:15 AM 0.3 °F -16.7 °F -7.6 °F 69% 30.59 in 10.0 mi NNW 11.5 mph - N/A   Clear
9:35 AM 0.9 °F -15.1 °F -7.6 °F 68% 30.60 in 10.0 mi NNW 10.4 mph - N/A   Clear
9:55 AM 1.2 °F -15.6 °F -7.6 °F 67% 30.61 in 10.0 mi NNW 11.5 mph - N/A   Clear
10:15 AM 1.6 °F -13.3 °F -7.8 °F 65% 30.63 in 10.0 mi NNW 9.2 mph - N/A   Clear
10:35 AM 2.3 °F -12.4 °F -7.6 °F 63% 30.63 in 10.0 mi NNW 9.2 mph - N/A   Clear
10:55 AM 2.3 °F -12.4 °F -7.2 °F 64% 30.62 in 10.0 mi North 9.2 mph - N/A   Clear
11:15 AM 2.5 °F -12.2 °F -6.9 °F 65% 30.62 in 10.0 mi NNW 9.2 mph - N/A   Clear
11:35 AM 2.7 °F -10.9 °F -7.1 °F 64% 30.63 in 10.0 mi North 8.1 mph - N/A   Clear
11:55 AM 3.4 °F -8.9 °F -6.5 °F 63% 30.62 in 10.0 mi North 6.9 mph - N/A   Clear
12:15 PM 4.3 °F -7.8 °F -5.8 °F 63% 30.61 in 10.0 mi NW 6.9 mph - N/A   Clear
12:35 PM 4.8 °F -5.8 °F -6.0 °F 61% 30.61 in 10.0 mi NW 5.8 mph - N/A   Clear
12:55 PM 5.0 °F -10.0 °F -5.1 °F 63% 30.61 in 10.0 mi WNW 10.4 mph - N/A   Clear
1:15 PM 5.5 °F -10.2 °F -3.8 °F 65% 30.60 in 10.0 mi West 11.5 mph - N/A   Clear
1:35 PM 5.5 °F -10.2 °F -3.6 °F 66% 30.59 in 10.0 mi West 11.5 mph - N/A   Clear
1:55 PM 5.9 °F -9.7 °F -3.8 °F 64% 30.59 in 10.0 mi WNW 11.5 mph - N/A   Clear
2:15 PM 6.3 °F -10.0 °F -3.3 °F 65% 30.58 in 10.0 mi WNW 12.7 mph - N/A   Clear
2:35 PM 6.8 °F -8.6 °F -2.7 °F 65% 30.58 in 10.0 mi West 11.5 mph 16.1 mph N/A   Clear
2:55 PM 6.4 °F -9.0 °F -3.5 °F 64% 30.58 in 10.0 mi West 11.5 mph - N/A   Clear
3:15 PM 6.4 °F -9.0 °F -3.5 °F 64% 30.59 in 10.0 mi West 11.5 mph - N/A   Clear
3:35 PM 6.3 °F -10.0 °F -3.6 °F 64% 30.59 in 10.0 mi West 12.7 mph - N/A   Clear
3:55 PM 5.9 °F -5.8 °F -4.7 °F 62% 30.58 in 10.0 mi WNW 6.9 mph - N/A   Clear
4:15 PM 4.8 °F -7.1 °F -5.1 °F 64% 30.58 in 10.0 mi West 6.9 mph - N/A   Clear
4:35 PM 3.2 °F -9.1 °F -6.0 °F 66% 30.58 in 10.0 mi West 6.9 mph - N/A   Clear
4:55 PM 1.0 °F -8.7 °F -6.9 °F 69% 30.57 in 10.0 mi West 4.6 mph - N/A   Clear
5:15 PM 0.3 °F -9.5 °F -7.4 °F 70% 30.57 in 10.0 mi West 4.6 mph - N/A   Clear
5:35 PM -0.2 °F -10.1 °F -7.4 °F 72% 30.57 in 10.0 mi West 4.6 mph - N/A   Clear
5:55 PM -1.7 °F -11.8 °F -8.1 °F 74% 30.58 in 10.0 mi West 4.6 mph - N/A   Clear
6:15 PM -2.6 °F -12.9 °F -9.4 °F 73% 30.56 in 10.0 mi SW 4.6 mph - N/A   Clear
6:35 PM 0.5 °F -11.0 °F -6.7 °F 72% 30.55 in 10.0 mi SW 5.8 mph - N/A   Clear
6:55 PM -2.9 °F -15.0 °F -8.9 °F 76% 30.55 in 10.0 mi South 5.8 mph - N/A   Clear
7:15 PM -3.5 °F -13.9 °F -9.9 °F 74% 30.55 in 10.0 mi SSE 4.6 mph - N/A   Clear
7:35 PM -3.6 °F -15.9 °F -9.9 °F 74% 30.54 in 10.0 mi South 5.8 mph - N/A   Clear
7:55 PM -4.0 °F -17.8 °F -9.8 °F 76% 30.53 in 10.0 mi South 6.9 mph - N/A   Clear
8:15 PM -2.4 °F -18.2 °F -8.5 °F 75% 30.54 in 10.0 mi South 9.2 mph - N/A   Clear
8:35 PM 0.5 °F -13.6 °F -5.8 °F 75% 30.53 in 10.0 mi SSW 8.1 mph - N/A   Clear
8:55 PM 2.7 °F -12.0 °F -4.0 °F 74% 30.51 in 10.0 mi SSW 9.2 mph - N/A   Clear
9:15 PM 3.2 °F -11.3 °F -3.5 °F 74% 30.51 in 10.0 mi SSW 9.2 mph - N/A   Clear
9:35 PM 2.3 °F -11.4 °F -4.5 °F 73% 30.51 in 10.0 mi South 8.1 mph - N/A   Clear
9:55 PM 1.8 °F -12.0 °F -5.3 °F 72% 30.51 in 10.0 mi South 8.1 mph - N/A   Clear
10:15 PM 1.4 °F -13.5 °F -5.3 °F 74% 30.49 in 10.0 mi South 9.2 mph - N/A   Clear
10:35 PM 1.4 °F -14.5 °F -5.4 °F 73% 30.48 in 10.0 mi South 10.4 mph - N/A   Clear
10:55 PM 1.0 °F -14.0 °F -5.8 °F 73% 30.48 in 10.0 mi SSW 9.2 mph - N/A   Clear
11:15 PM 0.7 °F -14.4 °F -5.8 °F 74% 30.47 in 10.0 mi South 9.2 mph - N/A   Clear
11:35 PM 0.3 °F -14.8 °F -6.0 °F 75% 30.46 in 10.0 mi South 9.2 mph - N/A   Clear
11:55 PM 1.8 °F -14.9 °F -4.9 °F 74% 30.45 in 10.0 mi South 11.5 mph - N/A   Clear